createdAt,value
2022-10-18T00:02:03.167Z,91.26
2022-10-18T00:04:29.725Z,91.28
2022-10-18T00:06:55.986Z,91.19
2022-10-18T00:09:22.543Z,91.21
2022-10-18T00:11:48.903Z,91.28
2022-10-18T00:14:15.269Z,91.24
2022-10-18T00:16:41.497Z,91.24
2022-10-18T00:19:08.014Z,91.22
2022-10-18T00:21:34.461Z,91.30
2022-10-18T00:24:00.718Z,91.34
2022-10-18T00:26:28.576Z,91.31
2022-10-18T00:29:01.505Z,91.31
2022-10-18T00:31:33.599Z,91.39
2022-10-18T00:34:02.172Z,91.39
2022-10-18T00:36:30.933Z,91.35
2022-10-18T00:38:57.709Z,91.46
2022-10-18T00:41:27.825Z,91.41
2022-10-18T00:43:58.800Z,91.48
2022-10-18T00:46:28.712Z,91.49
2022-10-18T00:49:05.678Z,91.56
2022-10-18T00:51:43.583Z,91.49
2022-10-18T00:54:11.630Z,91.47
2022-10-18T00:56:38.301Z,91.58
2022-10-18T00:59:06.434Z,91.61
2022-10-18T01:01:32.707Z,91.74
2022-10-18T01:03:59.107Z,91.71
2022-10-18T01:06:27.505Z,91.80
2022-10-18T01:09:11.918Z,91.91
2022-10-18T01:11:38.089Z,91.97
2022-10-18T01:14:07.329Z,91.92
2022-10-18T01:16:41.474Z,92.06
2022-10-18T01:19:27.770Z,92.04
2022-10-18T01:22:01.450Z,92.15
2022-10-18T01:24:45.278Z,92.28
2022-10-18T01:27:43.624Z,92.19
2022-10-18T01:30:15.942Z,92.39
2022-10-18T01:32:47.959Z,92.38
2022-10-18T01:35:20.326Z,92.24
2022-10-18T01:37:50.239Z,92.38
2022-10-18T01:40:20.053Z,92.30
2022-10-18T01:42:48.616Z,92.48
2022-10-18T01:45:16.376Z,92.59
2022-10-18T01:47:45.575Z,92.66
2022-10-18T01:50:12.837Z,92.90
2022-10-18T01:52:55.118Z,92.85
2022-10-18T01:55:27.002Z,92.94
2022-10-18T01:58:25.170Z,93.03
2022-10-18T02:01:03.021Z,93.05
2022-10-18T02:03:29.275Z,93.17
2022-10-18T02:06:06.090Z,93.17
2022-10-18T02:08:43.300Z,93.14
2022-10-18T02:11:12.358Z,93.14
2022-10-18T02:14:01.846Z,93.19
2022-10-18T02:16:38.403Z,93.33
2022-10-18T02:21:54.212Z,93.39
2022-10-18T02:24:22.994Z,93.48
2022-10-18T02:26:49.550Z,93.53
2022-10-18T02:29:15.930Z,93.42
2022-10-18T02:31:48.948Z,93.56
2022-10-18T02:34:18.317Z,93.58
2022-10-18T02:36:49.463Z,93.55
2022-10-18T02:39:20.426Z,93.53
2022-10-18T02:41:46.780Z,93.54
2022-10-18T02:44:13.041Z,93.60
2022-10-18T02:46:39.857Z,93.54
2022-10-18T02:49:06.259Z,93.68
2022-10-18T02:51:33.015Z,93.70
2022-10-18T02:53:59.300Z,93.69
2022-10-18T02:56:25.552Z,93.71
2022-10-18T02:58:51.794Z,93.82
2022-10-18T03:01:18.049Z,94.04
2022-10-18T03:03:44.450Z,94.01
2022-10-18T03:06:10.687Z,94.06
2022-10-18T03:08:37.398Z,94.13
2022-10-18T03:11:03.757Z,94.11
2022-10-18T03:15:56.513Z,94.18
2022-10-18T03:18:22.868Z,94.25
2022-10-18T03:20:49.088Z,94.37
2022-10-18T03:23:15.296Z,94.31
2022-10-18T03:25:44.213Z,94.42
2022-10-18T03:28:12.669Z,94.51
2022-10-18T03:30:38.924Z,94.51
2022-10-18T03:33:06.167Z,94.57
2022-10-18T03:35:32.421Z,94.55
2022-10-18T03:37:58.670Z,94.70
2022-10-18T03:40:25.053Z,94.70
2022-10-18T03:42:51.318Z,94.64
2022-10-18T03:45:17.606Z,94.69
2022-10-18T03:47:43.836Z,94.79
2022-10-18T03:50:10.195Z,94.78
2022-10-18T03:52:36.476Z,94.80
2022-10-18T03:55:03.243Z,94.95
2022-10-18T03:57:29.975Z,94.85
2022-10-18T03:59:56.193Z,94.98
2022-10-18T04:02:22.550Z,95.23
2022-10-18T04:04:48.823Z,95.23
2022-10-18T04:07:15.402Z,95.24
2022-10-18T04:09:41.669Z,95.27
2022-10-18T04:12:07.884Z,95.60
2022-10-18T04:14:34.113Z,95.58
2022-10-18T04:17:00.352Z,95.78
2022-10-18T04:19:27.096Z,95.82
2022-10-18T04:21:53.634Z,96.06
2022-10-18T04:24:19.907Z,96.11
2022-10-18T04:26:46.245Z,96.22
2022-10-18T04:29:12.626Z,96.45
2022-10-18T04:31:39.102Z,96.41
2022-10-18T04:34:05.363Z,96.53
2022-10-18T04:36:31.666Z,96.63
2022-10-18T04:38:57.938Z,96.54
2022-10-18T04:41:24.219Z,96.67
2022-10-18T04:43:50.454Z,96.79
2022-10-18T04:46:16.770Z,96.96
2022-10-18T04:48:43.033Z,96.94
2022-10-18T04:51:09.235Z,96.97
2022-10-18T04:53:35.527Z,96.99
2022-10-18T04:56:01.810Z,97.08
2022-10-18T04:58:28.092Z,97.11
2022-10-18T05:00:54.362Z,97.13
2022-10-18T05:03:20.710Z,97.11
2022-10-18T05:06:03.153Z,97.09
2022-10-18T05:08:34.667Z,97.16
2022-10-18T05:11:02.560Z,97.14
2022-10-18T05:13:29.292Z,97.12
2022-10-18T05:15:55.612Z,97.16
2022-10-18T05:18:21.886Z,97.16
2022-10-18T05:20:48.097Z,97.15
2022-10-18T05:23:14.318Z,97.25
2022-10-18T05:25:42.030Z,97.20
2022-10-18T05:28:34.722Z,97.29
2022-10-18T05:30:55.479Z,97.38
2022-10-18T05:33:21.832Z,97.36
2022-10-18T05:35:48.155Z,97.38
2022-10-18T05:38:14.362Z,97.33
2022-10-18T05:40:40.619Z,97.22
2022-10-18T05:43:06.848Z,97.33
2022-10-18T05:45:33.112Z,97.42
2022-10-18T05:47:59.337Z,97.39
2022-10-18T05:50:25.575Z,97.47
2022-10-18T05:53:02.672Z,97.44
2022-10-18T05:55:38.945Z,97.56
2022-10-18T05:58:05.260Z,97.59
2022-10-18T06:00:31.560Z,97.53
2022-10-18T06:03:00.241Z,97.61
2022-10-18T06:05:27.287Z,97.60
2022-10-18T06:07:53.736Z,97.64
2022-10-18T06:10:20.021Z,97.64
2022-10-18T06:12:46.362Z,97.59
2022-10-18T06:15:12.831Z,97.63
2022-10-18T06:17:43.944Z,97.71
2022-10-18T06:20:48.218Z,97.71
2022-10-18T06:23:48.845Z,97.84
2022-10-18T06:26:19.389Z,97.85
2022-10-18T06:28:50.805Z,97.81
2022-10-18T06:31:20.737Z,97.80
2022-10-18T06:33:47.486Z,97.90
2022-10-18T06:36:17.154Z,98.17
2022-10-18T06:38:43.629Z,98.31
2022-10-18T06:41:10.202Z,98.35
2022-10-18T06:43:36.470Z,98.22
2022-10-18T06:46:06.208Z,98.10
2022-10-18T06:48:35.646Z,98.14
2022-10-18T06:51:04.769Z,98.22
2022-10-18T06:53:33.260Z,98.25
2022-10-18T06:56:06.001Z,98.24
2022-10-18T06:58:34.293Z,98.24
2022-10-18T07:01:17.267Z,98.22
2022-10-18T07:03:46.348Z,98.22
2022-10-18T07:06:15.001Z,98.19
2022-10-18T07:08:42.113Z,98.20
2022-10-18T07:11:14.682Z,98.18
2022-10-18T07:13:41.361Z,98.24
2022-10-18T07:16:14.099Z,98.26
2022-10-18T07:18:47.535Z,98.43
2022-10-18T07:21:15.206Z,98.36
2022-10-18T07:23:43.478Z,98.28
2022-10-18T07:26:17.341Z,98.36
2022-10-18T07:28:46.679Z,98.42
2022-10-18T07:31:13.140Z,98.37
2022-10-18T07:33:42.228Z,98.53
2022-10-18T07:36:10.875Z,98.44
2022-10-18T07:38:37.605Z,98.40
2022-10-18T07:41:06.115Z,98.51
2022-10-18T07:43:33.595Z,98.43
2022-10-18T07:46:02.012Z,98.74
2022-10-18T07:48:28.502Z,98.73
2022-10-18T07:50:58.715Z,98.49
2022-10-18T07:53:24.936Z,98.80
2022-10-18T07:55:52.401Z,98.79
2022-10-18T07:58:18.654Z,98.94
2022-10-18T08:00:44.873Z,99.15
2022-10-18T08:03:11.189Z,99.23
2022-10-18T08:05:37.425Z,99.20
2022-10-18T08:08:07.203Z,99.32
2022-10-18T08:10:35.496Z,99.57
2022-10-18T08:13:01.773Z,99.58
2022-10-18T08:15:28.026Z,99.86
2022-10-18T08:17:54.251Z,99.52
2022-10-18T08:20:30.351Z,99.56
2022-10-18T08:23:00.072Z,99.59
2022-10-18T08:25:28.292Z,99.79
2022-10-18T08:27:54.548Z,99.93
2022-10-18T08:30:22.627Z,99.44
2022-10-18T08:32:48.869Z,99.43
2022-10-18T08:35:15.241Z,99.43
2022-10-18T08:37:41.442Z,99.46
2022-10-18T08:40:12.429Z,99.56
2022-10-18T08:42:57.216Z,99.59
2022-10-18T08:45:40.894Z,99.65
2022-10-18T08:48:18.232Z,99.74
2022-10-18T08:50:46.045Z,99.71
2022-10-18T08:53:36.301Z,99.64
2022-10-18T08:56:13.939Z,99.81
2022-10-18T08:58:44.906Z,99.69
2022-10-18T09:01:27.096Z,99.69
2022-10-18T09:04:06.553Z,99.54
2022-10-18T09:06:51.583Z,99.72
2022-10-18T09:09:33.774Z,99.76
2022-10-18T09:12:15.960Z,99.63
2022-10-18T09:15:04.194Z,99.91
2022-10-18T09:18:07.780Z,99.89
2022-10-18T09:21:04.590Z,99.99
2022-10-18T09:23:49.195Z,99.94
2022-10-18T09:26:19.994Z,99.87
2022-10-18T09:31:44.298Z,99.68
2022-10-18T09:34:24.635Z,99.40
2022-10-18T09:36:51.811Z,99.52
2022-10-18T09:39:22.445Z,99.66
2022-10-18T09:42:28.172Z,99.86
2022-10-18T09:45:05.572Z,100.00
2022-10-18T09:47:38.692Z,99.83
2022-10-18T09:50:23.542Z,99.66
2022-10-18T09:53:12.785Z,99.87
2022-10-18T09:55:54.731Z,99.79
2022-10-18T09:58:24.434Z,99.78
2022-10-18T10:00:52.637Z,99.60
2022-10-18T10:03:19.219Z,99.58
2022-10-18T10:05:46.239Z,99.67
2022-10-18T10:08:12.621Z,99.73
2022-10-18T10:10:45.118Z,99.57
2022-10-18T10:13:23.711Z,99.62
2022-10-18T10:15:59.856Z,99.59
2022-10-18T10:18:32.420Z,99.48
2022-10-18T10:21:02.388Z,99.54
2022-10-18T10:23:33.088Z,99.33
2022-10-18T10:26:22.180Z,99.40
2022-10-18T10:28:49.220Z,99.46
2022-10-18T10:31:32.645Z,99.65
2022-10-18T10:34:13.988Z,99.79
2022-10-18T10:36:50.695Z,99.99
2022-10-18T10:39:19.277Z,99.99
2022-10-18T10:41:54.227Z,100.00
2022-10-18T10:44:28.413Z,100.00
2022-10-18T10:46:55.156Z,100.00
2022-10-18T10:49:39.680Z,100.00
2022-10-18T10:52:26.944Z,100.00
2022-10-18T10:55:05.782Z,100.00
2022-10-18T10:57:46.250Z,100.00
2022-10-18T11:00:44.481Z,100.00
2022-10-18T11:03:27.879Z,100.00
2022-10-18T11:05:57.035Z,100.00
2022-10-18T11:08:32.522Z,100.00
2022-10-18T11:11:02.223Z,100.00
2022-10-18T11:13:41.519Z,100.00
2022-10-18T11:16:38.746Z,100.00
2022-10-18T11:19:25.147Z,100.00
2022-10-18T11:21:55.989Z,100.00
2022-10-18T11:24:23.333Z,100.00
2022-10-18T11:27:05.632Z,100.00
2022-10-18T11:29:38.141Z,100.00
2022-10-18T11:32:04.377Z,100.00
2022-10-18T11:34:45.935Z,100.00
2022-10-18T11:37:44.698Z,100.00
2022-10-18T11:40:40.878Z,100.00
2022-10-18T11:43:07.086Z,100.00
2022-10-18T11:45:59.827Z,100.00
2022-10-18T11:48:32.040Z,100.00
2022-10-18T11:51:26.491Z,100.00
2022-10-18T11:54:29.166Z,100.00
2022-10-18T11:57:17.600Z,100.00
2022-10-18T12:00:08.146Z,100.00
2022-10-18T12:03:02.824Z,100.00
2022-10-18T12:05:29.559Z,100.00
2022-10-18T12:08:01.957Z,100.00
2022-10-18T12:10:44.482Z,100.00
2022-10-18T12:13:36.842Z,100.00
2022-10-18T12:16:06.145Z,100.00
2022-10-18T12:18:35.277Z,100.00
2022-10-18T12:21:01.944Z,100.00
2022-10-18T12:24:00.189Z,100.00
2022-10-18T12:26:28.470Z,100.00
2022-10-18T12:28:57.614Z,100.00
2022-10-18T12:31:33.045Z,100.00
2022-10-18T12:34:10.218Z,100.00
2022-10-18T12:36:52.545Z,100.00
2022-10-18T12:39:37.494Z,100.00
2022-10-18T12:42:27.758Z,100.00
2022-10-18T12:45:25.635Z,100.00
2022-10-18T12:47:52.787Z,100.00
2022-10-18T12:50:30.369Z,100.00
2022-10-18T12:53:08.794Z,100.00
2022-10-18T12:55:40.883Z,100.00
2022-10-18T12:58:13.253Z,100.00
2022-10-18T13:00:42.458Z,100.00
2022-10-18T13:03:11.526Z,100.00
2022-10-18T13:05:57.304Z,100.00
2022-10-18T13:08:26.274Z,100.00
2022-10-18T13:11:11.283Z,100.00
2022-10-18T13:13:57.402Z,100.00
2022-10-18T13:16:30.527Z,100.00
2022-10-18T13:19:15.861Z,100.00
2022-10-18T13:22:05.224Z,100.00
2022-10-18T13:24:45.004Z,100.00
2022-10-18T13:27:36.340Z,100.00
2022-10-18T13:30:17.908Z,100.00
2022-10-18T13:33:00.145Z,100.00
2022-10-18T13:35:45.148Z,100.00
2022-10-18T13:38:46.293Z,100.00
2022-10-18T13:41:21.671Z,100.00
2022-10-18T13:44:06.980Z,100.00
2022-10-18T13:46:33.215Z,100.00
2022-10-18T13:49:30.289Z,100.00
2022-10-18T13:52:19.739Z,100.00
2022-10-18T13:55:15.956Z,100.00
2022-10-18T13:57:58.169Z,100.00
2022-10-18T14:00:49.061Z,100.00
2022-10-18T14:03:26.956Z,100.00
2022-10-18T14:06:33.832Z,100.00
2022-10-18T14:09:40.204Z,100.00
2022-10-18T14:12:33.784Z,100.00
2022-10-18T14:15:23.176Z,100.00
2022-10-18T14:18:21.395Z,100.00
2022-10-18T14:21:12.795Z,100.00
2022-10-18T14:23:43.940Z,100.00
2022-10-18T14:26:15.961Z,100.00
2022-10-18T14:29:00.256Z,100.00
2022-10-18T14:31:27.459Z,100.00
2022-10-18T14:33:57.878Z,100.00
2022-10-18T14:36:26.393Z,100.00
2022-10-18T14:39:01.796Z,100.00
2022-10-18T14:41:39.574Z,100.00
2022-10-18T14:44:26.750Z,100.00
2022-10-18T14:47:24.938Z,100.00
2022-10-18T14:49:57.032Z,100.00
2022-10-18T14:52:29.475Z,100.00
2022-10-18T14:54:58.897Z,100.00
2022-10-18T14:57:32.585Z,100.00
2022-10-18T15:00:06.694Z,100.00
2022-10-18T15:02:36.703Z,100.00
2022-10-18T15:05:19.856Z,100.00
2022-10-18T15:07:47.543Z,100.00
2022-10-18T15:10:20.720Z,100.00
2022-10-18T15:13:08.735Z,100.00
2022-10-18T15:15:35.411Z,100.00
2022-10-18T15:18:04.371Z,100.00
2022-10-18T15:20:34.395Z,100.00
2022-10-18T15:23:25.304Z,100.00
2022-10-18T15:26:01.638Z,100.00
2022-10-18T15:28:38.656Z,100.00
2022-10-18T15:31:06.099Z,100.00
2022-10-18T15:33:33.979Z,100.00
2022-10-18T15:36:22.293Z,100.00
2022-10-18T15:38:50.056Z,100.00
2022-10-18T15:41:37.736Z,100.00
2022-10-18T15:44:20.037Z,100.00
2022-10-18T15:46:47.225Z,100.00
2022-10-18T15:49:45.506Z,100.00
2022-10-18T15:52:43.701Z,100.00
2022-10-18T15:55:29.020Z,100.00
2022-10-18T15:58:11.236Z,100.00
2022-10-18T16:00:37.505Z,100.00
2022-10-18T16:03:03.888Z,100.00
2022-10-18T16:05:30.114Z,100.00
2022-10-18T16:07:56.333Z,100.00
2022-10-18T16:10:22.599Z,100.00
2022-10-18T16:12:48.865Z,100.00
2022-10-18T16:15:15.193Z,100.00
2022-10-18T16:21:29.183Z,100.00
2022-10-18T16:23:56.007Z,100.00
2022-10-18T16:26:41.748Z,100.00
2022-10-18T16:29:31.278Z,100.00
2022-10-18T16:31:58.062Z,100.00
2022-10-18T16:34:26.523Z,100.00
2022-10-18T16:36:52.870Z,100.00
2022-10-18T16:39:21.012Z,100.00
2022-10-18T16:41:47.629Z,100.00
2022-10-18T16:44:16.019Z,100.00
2022-10-18T16:46:42.317Z,100.00
2022-10-18T16:49:18.043Z,100.00
2022-10-18T16:51:44.354Z,100.00
2022-10-18T16:54:10.670Z,100.00
2022-10-18T16:56:38.490Z,100.00
2022-10-18T16:59:05.031Z,100.00
2022-10-18T17:01:31.508Z,100.00
2022-10-18T17:03:57.861Z,100.00
2022-10-18T17:06:27.098Z,100.00
2022-10-18T17:08:55.171Z,100.00
2022-10-18T17:11:23.659Z,100.00
2022-10-18T17:13:50.596Z,100.00
2022-10-18T17:18:55.762Z,100.00
2022-10-18T17:21:23.342Z,100.00
2022-10-18T17:23:49.943Z,100.00
2022-10-18T17:26:28.909Z,100.00
2022-10-18T17:28:59.590Z,100.00
2022-10-18T17:31:27.404Z,100.00
2022-10-18T17:33:55.591Z,100.00
2022-10-18T17:36:21.906Z,100.00
2022-10-18T17:38:55.955Z,100.00
2022-10-18T17:41:24.583Z,100.00
2022-10-18T17:43:54.220Z,100.00
2022-10-18T17:46:28.449Z,100.00
2022-10-18T17:48:54.944Z,100.00
2022-10-18T17:51:22.269Z,100.00
2022-10-18T17:53:54.784Z,100.00
2022-10-18T17:56:22.671Z,100.00
2022-10-18T17:58:52.154Z,100.00
2022-10-18T18:01:23.602Z,100.00
2022-10-18T18:03:56.444Z,100.00
2022-10-18T18:06:30.113Z,100.00
2022-10-18T18:08:58.293Z,100.00
2022-10-18T18:11:38.846Z,100.00
2022-10-18T18:14:12.199Z,100.00
2022-10-18T18:16:45.136Z,100.00
2022-10-18T18:19:27.323Z,100.00
2022-10-18T18:22:15.055Z,100.00
2022-10-18T18:24:42.308Z,100.00
2022-10-18T18:27:09.749Z,100.00
2022-10-18T18:29:48.651Z,100.00
2022-10-18T18:32:21.057Z,100.00
2022-10-18T18:35:18.145Z,100.00
2022-10-18T18:37:51.442Z,100.00
2022-10-18T18:40:17.834Z,100.00
2022-10-18T18:42:56.762Z,100.00
2022-10-18T18:45:32.089Z,100.00
2022-10-18T18:47:58.437Z,100.00
2022-10-18T18:50:24.883Z,100.00
2022-10-18T18:52:51.156Z,100.00
2022-10-18T18:55:17.430Z,100.00
2022-10-18T18:57:44.061Z,100.00
2022-10-18T19:00:14.310Z,100.00
2022-10-18T19:02:40.724Z,100.00
2022-10-18T19:05:07.065Z,100.00
2022-10-18T19:07:36.107Z,100.00
2022-10-18T19:10:04.504Z,100.00
2022-10-18T19:12:30.909Z,100.00
2022-10-18T19:14:59.289Z,100.00
2022-10-18T19:17:26.467Z,100.00
2022-10-18T19:19:53.427Z,100.00
2022-10-18T19:22:20.053Z,100.00
2022-10-18T19:24:46.456Z,100.00
2022-10-18T19:27:23.790Z,100.00
2022-10-18T19:29:50.178Z,100.00
2022-10-18T19:32:18.253Z,100.00
2022-10-18T19:34:47.842Z,100.00
2022-10-18T19:37:15.055Z,100.00
2022-10-18T19:39:42.254Z,100.00
2022-10-18T19:42:12.620Z,100.00
2022-10-18T19:44:41.105Z,100.00
2022-10-18T19:47:11.238Z,100.00
2022-10-18T19:49:39.213Z,100.00
2022-10-18T19:52:05.674Z,100.00
2022-10-18T19:54:32.824Z,100.00
2022-10-18T19:56:59.294Z,100.00
2022-10-18T19:59:29.009Z,100.00
2022-10-18T20:01:56.582Z,100.00
2022-10-18T20:04:55.141Z,100.00
2022-10-18T20:10:38.939Z,100.00
2022-10-18T20:13:15.719Z,100.00
2022-10-18T20:15:50.451Z,100.00
2022-10-18T20:18:23.880Z,100.00
2022-10-18T20:21:00.349Z,100.00
2022-10-18T20:23:47.136Z,100.00
2022-10-18T20:26:27.267Z,100.00
2022-10-18T20:29:08.977Z,100.00
2022-10-18T20:32:01.873Z,100.00
2022-10-18T20:34:31.116Z,100.00
2022-10-18T20:37:04.952Z,100.00
2022-10-18T20:39:39.649Z,100.00
2022-10-18T20:42:08.216Z,100.00
2022-10-18T20:44:36.938Z,100.00
2022-10-18T20:47:12.069Z,100.00
2022-10-18T20:49:40.703Z,100.00
2022-10-18T20:52:07.340Z,100.00
2022-10-18T20:54:35.802Z,100.00
2022-10-18T20:57:03.511Z,100.00
2022-10-18T20:59:30.237Z,100.00
2022-10-18T21:01:59.694Z,100.00
2022-10-18T21:04:26.506Z,100.00
2022-10-18T21:06:53.989Z,100.00
2022-10-18T21:09:23.845Z,100.00
2022-10-18T21:11:57.321Z,100.00
2022-10-18T21:14:24.066Z,100.00
2022-10-18T21:16:51.968Z,100.00
2022-10-18T21:19:25.864Z,100.00
2022-10-18T21:22:00.312Z,100.00
2022-10-18T21:24:32.669Z,100.00
2022-10-18T21:27:00.461Z,100.00
2022-10-18T21:29:27.020Z,100.00
2022-10-18T21:32:00.331Z,100.00
2022-10-18T21:34:46.106Z,100.00
2022-10-18T21:37:13.267Z,100.00
2022-10-18T21:42:36.992Z,100.00
2022-10-18T21:45:11.077Z,100.00
2022-10-18T21:47:45.250Z,100.00
2022-10-18T21:50:26.823Z,100.00
2022-10-18T21:53:04.351Z,100.00
2022-10-18T21:55:36.874Z,100.00
2022-10-18T21:58:06.120Z,100.00
2022-10-18T22:00:43.315Z,100.00
2022-10-18T22:04:13.460Z,100.00
2022-10-18T22:09:59.955Z,100.00
2022-10-18T22:12:46.397Z,100.00
2022-10-18T22:15:14.673Z,100.00
2022-10-18T22:17:45.901Z,100.00
2022-10-18T22:20:18.371Z,100.00
2022-10-18T22:22:46.973Z,100.00
2022-10-18T22:25:21.333Z,100.00
2022-10-18T22:27:49.591Z,100.00
2022-10-18T22:30:16.750Z,100.00
2022-10-18T22:32:43.408Z,100.00
2022-10-18T22:35:15.118Z,100.00
2022-10-18T22:37:48.126Z,100.00
2022-10-18T22:40:15.439Z,100.00
2022-10-18T22:42:41.933Z,100.00
2022-10-18T22:45:22.204Z,100.00
2022-10-18T22:47:54.786Z,100.00
2022-10-18T22:50:24.692Z,100.00
2022-10-18T22:52:58.790Z,100.00
2022-10-18T22:55:32.108Z,100.00
2022-10-18T22:58:10.220Z,100.00
2022-10-18T23:00:43.005Z,100.00
2022-10-18T23:03:11.723Z,100.00
2022-10-18T23:05:46.938Z,100.00
2022-10-18T23:08:26.459Z,100.00
2022-10-18T23:10:57.911Z,100.00
2022-10-18T23:13:28.371Z,100.00
2022-10-18T23:16:04.618Z,100.00
2022-10-18T23:18:35.895Z,100.00
2022-10-18T23:21:12.635Z,100.00
2022-10-18T23:23:41.935Z,100.00
2022-10-18T23:26:19.509Z,100.00
2022-10-18T23:28:48.826Z,100.00
2022-10-18T23:31:23.054Z,100.00
2022-10-18T23:33:56.317Z,100.00
2022-10-18T23:36:29.226Z,100.00
2022-10-18T23:38:58.088Z,100.00
2022-10-18T23:41:29.171Z,100.00
2022-10-18T23:44:22.446Z,100.00
2022-10-18T23:47:01.798Z,100.00
2022-10-18T23:49:31.482Z,100.00
2022-10-18T23:52:05.193Z,100.00
2022-10-18T23:54:38.225Z,100.00
2022-10-18T23:57:10.563Z,100.00
2022-10-18T23:59:37.007Z,100.00
